Time;durP1;ratioP1;P1;durP2;ratioP2;P2;SDS_P1;SDS_P2;PMS_P1;PMS_P2;Temp;Humidity;BMP_temperature;BMP_pressure;BME280_temperature;BME280_humidity;BME280_pressure;Samples;Min_cycle;Max_cycle;Signal;HPM_P1;HPM_P2
2023/12/28 00:02:59;;;;;;;7.12;1.80;;;;;;;8.11;52.78;100619.54;1643873;86;21365;-93
2023/12/28 00:06:05;;;;;;;3.15;1.77;;;;;;;8.16;52.56;100622.66;1660462;83;21364;-93
2023/12/28 00:09:12;;;;;;;2.80;2.02;;;;;;;7.98;53.45;100635.38;1658233;84;21384;-95
2023/12/28 00:12:20;;;;;;;4.45;1.85;;;;;;;7.88;53.41;100643.09;1659682;84;21261;-94
2023/12/28 00:15:26;;;;;;;5.15;2.22;;;;;;;7.76;53.92;100640.20;1656626;84;21394;-93
2023/12/28 00:18:32;;;;;;;3.72;1.52;;;;;;;7.83;53.82;100650.01;1643770;86;21381;-93
2023/12/28 00:21:40;;;;;;;3.98;1.90;;;;;;;7.92;53.61;100643.16;1655656;84;21389;-94
2023/12/28 00:24:46;;;;;;;3.50;1.90;;;;;;;7.97;53.53;100659.05;1645877;85;21259;-94
2023/12/28 00:27:53;;;;;;;2.92;1.65;;;;;;;7.81;53.76;100652.01;1653517;84;21307;-93
2023/12/28 00:30:59;;;;;;;3.72;1.80;;;;;;;7.82;53.91;100661.92;1642125;85;21365;-94
2023/12/28 00:34:06;;;;;;;4.83;1.75;;;;;;;7.87;53.65;100644.11;1592669;88;21435;-93
2023/12/28 00:37:12;;;;;;;4.33;1.85;;;;;;;7.89;53.75;100661.66;1631898;85;21407;-93
2023/12/28 00:40:18;;;;;;;4.20;2.33;;;;;;;7.86;53.82;100654.66;1589035;88;21325;-94
2023/12/28 00:43:23;;;;;;;2.90;1.80;;;;;;;7.74;53.97;100664.02;1622882;86;21385;-93
2023/12/28 00:46:29;;;;;;;2.75;1.75;;;;;;;8.02;53.29;100664.89;1632376;86;22107;-93
2023/12/28 00:49:36;;;;;;;1.60;1.40;;;;;;;7.75;53.91;100664.36;1604664;87;21380;-93
2023/12/28 00:52:42;;;;;;;2.20;1.85;;;;;;;7.83;53.83;100673.16;1651881;85;21384;-93
2023/12/28 00:55:49;;;;;;;4.00;2.08;;;;;;;7.89;53.58;100669.32;1661516;85;21374;-94
2023/12/28 00:58:55;;;;;;;3.00;1.60;;;;;;;7.91;53.46;100671.41;1665087;81;21392;-93
2023/12/28 01:02:02;;;;;;;6.35;1.80;;;;;;;7.79;53.69;100675.83;1639093;85;21278;-93
2023/12/28 01:05:09;;;;;;;4.78;1.82;;;;;;;7.91;53.30;100666.47;1635210;86;21378;-93
2023/12/28 01:08:15;;;;;;;4.78;2.27;;;;;;;7.78;53.46;100674.97;1616372;88;21394;-94
2023/12/28 01:11:21;;;;;;;2.65;1.60;;;;;;;8.07;52.67;100677.55;1636170;85;21924;-94
2023/12/28 01:14:28;;;;;;;2.92;1.70;;;;;;;7.75;53.61;100671.17;1604449;87;22101;-93
2023/12/28 01:17:33;;;;;;;4.28;1.50;;;;;;;7.65;53.41;100673.94;1657325;84;21408;-93
2023/12/28 01:20:38;;;;;;;5.15;1.70;;;;;;;7.93;52.87;100677.55;1641148;85;21908;-93
2023/12/28 01:23:45;;;;;;;2.87;1.67;;;;;;;7.51;53.86;100687.16;1660079;84;22035;-94
2023/12/28 01:26:52;;;;;;;4.65;2.08;;;;;;;7.40;54.21;100689.06;1660842;84;21377;-93
2023/12/28 01:29:58;;;;;;;3.40;1.65;;;;;;;7.22;54.99;100692.67;1650944;83;21938;-93
2023/12/28 01:33:06;;;;;;;3.65;1.90;;;;;;;7.46;54.49;100699.85;1660704;84;21903;-93
2023/12/28 01:36:29;;;;;;;4.25;1.62;;;;;;;7.58;54.09;100695.97;1664745;84;21318;-94
2023/12/28 01:39:35;;;;;;;3.47;1.30;;;;;;;7.72;53.44;100700.08;1691539;83;21365;-94
2023/12/28 01:42:42;;;;;;;4.20;1.70;;;;;;;7.59;53.85;100703.12;1687666;82;21428;-93
2023/12/28 01:45:49;;;;;;;3.85;1.70;;;;;;;7.91;52.86;100708.17;1652417;83;21416;-93
2023/12/28 01:48:57;;;;;;;2.98;1.42;;;;;;;8.18;52.07;100707.31;1631149;85;21435;-93
2023/12/28 01:52:05;;;;;;;4.17;1.98;;;;;;;8.15;52.13;100709.51;1637343;85;21293;-92
2023/12/28 01:55:13;;;;;;;2.00;1.50;;;;;;;7.66;53.22;100704.73;1627046;86;22207;-93
2023/12/28 01:58:19;;;;;;;1.85;1.30;;;;;;;7.74;52.99;100706.73;1626340;85;21386;-94
2023/12/28 02:01:26;;;;;;;4.53;1.90;;;;;;;7.58;53.40;100716.89;1658031;84;21983;-93
2023/12/28 02:04:33;;;;;;;3.08;1.82;;;;;;;7.22;54.19;100717.16;1652483;81;21404;-93
2023/12/28 02:07:40;;;;;;;2.37;1.30;;;;;;;7.25;54.58;100719.09;1642664;85;21345;-93
2023/12/28 02:10:48;;;;;;;4.12;1.72;;;;;;;7.28;54.40;100713.34;1665407;82;22047;-93
2023/12/28 02:13:54;;;;;;;5.12;2.00;;;;;;;7.36;54.14;100718.07;1657789;84;21417;-94
2023/12/28 02:17:09;;;;;;;4.58;2.25;;;;;;;7.26;54.33;100722.67;1658150;84;21257;-94
2023/12/28 02:20:17;;;;;;;3.02;1.82;;;;;;;7.40;54.29;100724.44;1650537;84;21373;-94
2023/12/28 02:23:22;;;;;;;4.60;2.00;;;;;;;7.42;54.04;100730.58;1664784;85;22013;-93
2023/12/28 02:26:29;;;;;;;3.25;1.82;;;;;;;7.16;54.79;100734.42;1655663;84;21210;-94
2023/12/28 02:29:36;;;;;;;5.45;2.02;;;;;;;7.21;54.47;100738.07;1656843;83;21246;-94
2023/12/28 02:33:00;;;;;;;4.60;1.90;;;;;;;7.30;54.35;100744.01;1649228;84;21266;-94
2023/12/28 02:36:14;;;;;;;2.75;1.70;;;;;;;7.23;54.60;100744.21;1640936;86;21841;-93
2023/12/28 02:39:22;;;;;;;4.45;2.00;;;;;;;7.24;54.43;100755.95;1613719;87;21809;-93
2023/12/28 02:42:29;;;;;;;4.60;2.10;;;;;;;7.55;54.01;100753.42;1664773;86;21390;-92
2023/12/28 02:45:37;;;;;;;4.37;2.25;;;;;;;7.57;53.68;100755.48;1664145;83;21350;-93
2023/12/28 02:48:43;;;;;;;5.92;2.10;;;;;;;7.82;53.19;100767.62;1664861;85;21955;-93
2023/12/28 02:51:49;;;;;;;4.35;2.10;;;;;;;7.35;53.98;100772.15;1662734;85;21337;-95
2023/12/28 02:54:56;;;;;;;4.25;2.10;;;;;;;7.00;54.55;100774.06;1658119;84;21617;-94
2023/12/28 02:58:05;;;;;;;5.53;2.05;;;;;;;7.15;54.27;100782.15;1644371;85;21401;-93
2023/12/28 03:01:11;;;;;;;6.65;2.20;;;;;;;7.14;54.08;100777.72;1657595;84;21368;-94
2023/12/28 03:04:18;;;;;;;2.90;1.85;;;;;;;7.04;54.16;100776.36;1663064;85;21460;-93
2023/12/28 03:07:24;;;;;;;4.08;2.22;;;;;;;7.12;54.06;100786.03;1643667;85;21364;-93
2023/12/28 03:10:28;;;;;;;3.67;2.00;;;;;;;7.11;53.97;100782.96;1629427;85;21310;-93
2023/12/28 03:13:35;;;;;;;7.37;2.00;;;;;;;7.18;53.81;100789.53;1664406;86;21272;-94
2023/12/28 03:16:41;;;;;;;8.83;2.42;;;;;;;7.05;54.18;100790.31;1662184;84;21378;-94
2023/12/28 03:19:47;;;;;;;5.47;1.90;;;;;;;7.27;53.79;100803.30;1643459;85;21358;-93
2023/12/28 03:22:54;;;;;;;5.60;1.95;;;;;;;7.08;53.98;100804.14;1664812;85;21932;-94
2023/12/28 03:26:01;;;;;;;4.47;2.27;;;;;;;7.13;54.22;100807.30;1662150;84;21940;-93
2023/12/28 03:29:08;;;;;;;2.92;2.08;;;;;;;7.18;53.75;100803.14;1648270;85;21817;-94
2023/12/28 03:32:14;;;;;;;6.83;2.27;;;;;;;7.26;53.56;100805.16;1623697;85;22623;-93
2023/12/28 03:35:21;;;;;;;7.92;3.52;;;;;;;7.18;53.72;100811.80;1664119;83;21956;-93
2023/12/28 03:38:27;;;;;;;6.70;2.50;;;;;;;7.22;53.57;100812.39;1665752;85;21397;-94
2023/12/28 03:41:34;;;;;;;8.80;2.98;;;;;;;7.52;52.88;100816.30;1662780;85;21425;-94
2023/12/28 03:44:41;;;;;;;4.90;2.10;;;;;;;7.33;53.07;100825.84;1661089;85;21379;-92
2023/12/28 03:47:48;;;;;;;5.17;2.12;;;;;;;7.22;53.50;100837.73;1660210;83;21274;-94
2023/12/28 03:50:55;;;;;;;5.33;2.25;;;;;;;7.36;53.02;100838.67;1664440;84;22006;-93
2023/12/28 03:54:02;;;;;;;4.45;2.27;;;;;;;7.32;53.10;100837.23;1661067;84;21257;-93
2023/12/28 03:57:09;;;;;;;4.03;2.25;;;;;;;7.33;53.13;100840.81;1656324;84;21325;-93
2023/12/28 04:00:17;;;;;;;7.03;2.67;;;;;;;7.69;52.23;100843.31;1655190;84;21382;-94
2023/12/28 04:03:24;;;;;;;6.90;2.70;;;;;;;7.73;52.16;100852.92;1648740;82;21384;-94
2023/12/28 04:06:31;;;;;;;9.08;3.90;;;;;;;7.68;52.26;100858.80;1662373;84;22017;-94
2023/12/28 04:09:38;;;;;;;7.87;2.87;;;;;;;7.42;52.68;100855.78;1645609;85;21385;-93
2023/12/28 04:12:45;;;;;;;8.35;3.20;;;;;;;7.57;52.74;100856.71;1657800;84;22000;-93
2023/12/28 04:15:52;;;;;;;14.07;4.03;;;;;;;7.11;53.79;100867.80;1641308;85;21402;-94
2023/12/28 04:18:59;;;;;;;10.35;3.67;;;;;;;7.22;54.22;100879.91;1614599;87;21397;-93
2023/12/28 04:22:06;;;;;;;8.75;4.03;;;;;;;7.19;53.94;100885.62;1665498;85;22561;-93
2023/12/28 04:25:12;;;;;;;18.82;4.45;;;;;;;7.21;54.09;100892.30;1662646;84;21409;-94
2023/12/28 04:28:19;;;;;;;8.63;3.70;;;;;;;7.18;54.16;100889.34;1649362;83;21342;-94
2023/12/28 04:31:26;;;;;;;12.65;4.28;;;;;;;7.32;53.82;100901.69;1654557;84;21901;-93
2023/12/28 04:34:35;;;;;;;7.70;4.55;;;;;;;7.18;54.08;100900.23;1666743;83;21356;-93
2023/12/28 04:37:42;;;;;;;11.90;4.85;;;;;;;7.29;53.90;100904.20;1661029;84;21368;-94
2023/12/28 04:40:48;;;;;;;9.85;4.55;;;;;;;7.29;53.97;100900.59;1662141;85;21344;-93
2023/12/28 04:43:55;;;;;;;9.55;4.55;;;;;;;7.32;54.13;100909.34;1641489;86;21943;-93
2023/12/28 04:47:02;;;;;;;11.78;4.25;;;;;;;7.38;53.86;100915.58;1654897;84;21401;-94
2023/12/28 04:50:08;;;;;;;8.20;4.22;;;;;;;7.34;54.06;100918.25;1624218;85;21325;-92
2023/12/28 04:53:15;;;;;;;11.20;4.40;;;;;;;7.18;54.73;100916.05;1664742;85;21384;-94
2023/12/28 04:56:24;;;;;;;9.78;4.62;;;;;;;7.23;54.74;100910.69;1663737;83;21376;-93
2023/12/28 04:59:31;;;;;;;10.40;4.10;;;;;;;7.27;54.87;100914.35;1658978;85;21349;-93
2023/12/28 05:02:37;;;;;;;11.15;3.40;;;;;;;7.35;54.96;100905.50;1654421;83;21938;-93
2023/12/28 05:05:42;;;;;;;12.15;4.80;;;;;;;7.32;55.24;100909.34;1648645;85;21880;-93
2023/12/28 05:08:49;;;;;;;7.35;3.83;;;;;;;7.51;54.61;100914.45;1660723;85;21373;-94
2023/12/28 05:11:56;;;;;;;9.45;4.20;;;;;;;7.61;54.20;100920.77;1655764;83;21955;-94
2023/12/28 05:15:01;;;;;;;7.62;3.80;;;;;;;8.20;53.19;100918.37;1665784;85;21407;-94
2023/12/28 05:18:08;;;;;;;9.73;4.00;;;;;;;8.39;52.54;100923.81;1651927;84;21255;-93
2023/12/28 05:21:16;;;;;;;9.30;4.30;;;;;;;8.00;53.09;100923.48;1665027;85;21400;-95
2023/12/28 05:24:22;;;;;;;6.92;3.20;;;;;;;7.78;53.42;100921.42;1661824;83;21990;-95
2023/12/28 05:27:30;;;;;;;13.55;3.90;;;;;;;7.88;53.22;100922.28;1656934;84;21416;-95
2023/12/28 05:30:36;;;;;;;11.65;3.83;;;;;;;7.69;53.59;100926.37;1658476;84;21372;-94
2023/12/28 05:33:42;;;;;;;10.32;4.50;;;;;;;7.54;54.10;100921.84;1648721;83;21367;-93
2023/12/28 05:36:48;;;;;;;11.45;4.20;;;;;;;7.74;53.85;100930.88;1647131;84;21926;-93
2023/12/28 05:39:55;;;;;;;9.43;3.67;;;;;;;7.84;53.12;100930.38;1648950;84;21394;-93
2023/12/28 05:43:01;;;;;;;9.80;3.62;;;;;;;7.80;53.15;100929.44;1646038;85;22598;-92
2023/12/28 05:46:08;;;;;;;7.12;3.67;;;;;;;7.98;52.94;100933.17;1660808;84;21623;-93
2023/12/28 05:49:15;;;;;;;8.53;4.45;;;;;;;7.79;53.03;100933.17;1646568;84;21413;-93
2023/12/28 05:52:22;;;;;;;6.97;3.85;;;;;;;7.64;53.62;100938.19;1631919;85;21885;-94
2023/12/28 05:55:27;;;;;;;8.88;3.47;;;;;;;7.58;53.72;100930.59;1630475;85;22266;-93
2023/12/28 05:58:34;;;;;;;7.00;3.85;;;;;;;7.41;54.14;100941.66;1629792;85;21388;-94
2023/12/28 06:01:51;;;;;;;8.95;4.05;;;;;;;7.55;53.96;100934.45;1631114;82;21372;-94
2023/12/28 06:05:04;;;;;;;11.00;4.40;;;;;;;7.59;53.99;100931.81;1655521;84;21388;-94
2023/12/28 06:08:11;;;;;;;7.10;3.80;;;;;;;7.85;53.30;100932.59;1664735;83;21291;-93
2023/12/28 06:11:18;;;;;;;7.15;3.52;;;;;;;7.92;53.17;100933.25;1656823;84;21294;-94
2023/12/28 06:14:24;;;;;;;6.95;3.58;;;;;;;7.94;53.13;100933.95;1658630;84;21380;-93
2023/12/28 06:17:30;;;;;;;8.25;3.67;;;;;;;8.20;52.62;100936.95;1664400;85;21399;-94
2023/12/28 06:20:37;;;;;;;10.93;4.25;;;;;;;7.86;53.19;100936.56;1661330;84;21371;-93
2023/12/28 06:23:43;;;;;;;6.83;3.83;;;;;;;8.09;52.73;100938.95;1629977;85;21278;-93
2023/12/28 06:26:50;;;;;;;7.42;3.58;;;;;;;8.09;52.52;100941.20;1638229;84;21356;-93
2023/12/28 06:29:57;;;;;;;7.47;3.70;;;;;;;8.09;52.81;100941.69;1604973;86;21382;-94
2023/12/28 06:33:04;;;;;;;11.57;3.67;;;;;;;8.05;52.72;100950.67;1627728;85;21392;-93
2023/12/28 06:36:16;;;;;;;7.90;3.37;;;;;;;7.91;53.03;100957.41;1606658;87;21256;-94
2023/12/28 06:39:22;;;;;;;10.55;4.03;;;;;;;7.81;53.57;100963.36;1636438;86;21672;-94
2023/12/28 06:42:29;;;;;;;9.53;3.70;;;;;;;7.86;53.36;100969.24;1633626;83;21254;-94
2023/12/28 06:45:36;;;;;;;12.40;3.92;;;;;;;8.37;52.40;100980.84;1635710;86;21368;-94
2023/12/28 06:48:43;;;;;;;9.18;3.72;;;;;;;8.21;52.49;100982.77;1644978;85;22203;-94
2023/12/28 06:51:50;;;;;;;9.53;3.58;;;;;;;8.27;52.28;100979.45;1630026;86;21911;-93
2023/12/28 06:55:00;;;;;;;8.00;3.90;;;;;;;8.20;52.59;100975.61;1629438;85;21961;-93
2023/12/28 06:58:07;;;;;;;11.33;4.78;;;;;;;8.09;52.83;100965.73;1631412;85;21936;-93
2023/12/28 07:01:16;;;;;;;14.30;4.28;;;;;;;8.11;52.82;100974.61;1617271;87;21972;-93
2023/12/28 07:04:25;;;;;;;18.57;5.15;;;;;;;8.11;53.04;100966.94;1637087;85;21397;-94
2023/12/28 07:07:32;;;;;;;51.33;6.12;;;;;;;8.09;52.96;100973.02;1630039;85;21624;-93
2023/12/28 07:10:38;;;;;;;37.55;5.05;;;;;;;8.41;52.41;100979.04;1642472;86;21374;-92
2023/12/28 07:13:44;;;;;;;36.40;5.28;;;;;;;8.45;52.37;100984.56;1642761;85;21392;-93
2023/12/28 07:16:50;;;;;;;16.23;4.05;;;;;;;8.72;51.77;100969.80;1652148;85;21355;-93
2023/12/28 07:19:57;;;;;;;23.73;4.17;;;;;;;8.82;51.52;100970.12;1630038;85;21396;-92
2023/12/28 07:23:06;;;;;;;28.92;4.08;;;;;;;8.76;51.56;100972.59;1618687;85;21290;-93
2023/12/28 07:26:13;;;;;;;15.13;3.70;;;;;;;9.07;50.92;100973.17;1643275;84;21245;-92
2023/12/28 07:29:20;;;;;;;14.60;3.55;;;;;;;9.03;50.92;100969.88;1642763;84;21360;-92
2023/12/28 07:32:27;;;;;;;27.00;4.22;;;;;;;9.00;50.91;100978.89;1622105;86;21413;-91
2023/12/28 07:35:35;;;;;;;29.42;4.03;;;;;;;9.15;50.74;100974.66;1637767;85;22620;-93
2023/12/28 07:38:41;;;;;;;49.63;4.72;;;;;;;8.78;51.46;100968.69;1644812;84;21352;-93
2023/12/28 07:41:52;;;;;;;31.10;4.33;;;;;;;9.00;50.97;100971.56;1636975;85;21355;-92
2023/12/28 07:45:00;;;;;;;18.45;3.95;;;;;;;8.89;51.46;100976.71;1640963;84;21388;-91
2023/12/28 07:48:07;;;;;;;51.20;5.80;;;;;;;9.00;51.31;100987.08;1647930;84;21319;-93
2023/12/28 07:51:14;;;;;;;43.83;6.83;;;;;;;9.04;50.89;100983.91;1646452;84;21364;-91
2023/12/28 07:54:20;;;;;;;23.50;3.55;;;;;;;8.88;51.35;100978.20;1637649;84;21359;-91
2023/12/28 07:57:28;;;;;;;50.88;4.25;;;;;;;8.58;51.85;100987.49;1647461;85;21351;-92
2023/12/28 08:00:36;;;;;;;9.90;3.55;;;;;;;8.67;51.83;100990.70;1645848;84;21380;-91
2023/12/28 08:03:44;;;;;;;12.37;3.95;;;;;;;8.68;51.63;100985.59;1648839;85;21360;-92
2023/12/28 08:06:50;;;;;;;9.53;3.80;;;;;;;8.68;51.48;100996.50;1646312;86;21257;-93
2023/12/28 08:09:57;;;;;;;6.72;3.12;;;;;;;8.78;51.32;101001.42;1630472;85;21380;-93
2023/12/28 08:13:09;;;;;;;19.70;3.33;;;;;;;8.40;51.97;101007.31;1627809;85;21230;-92
2023/12/28 08:16:36;;;;;;;10.58;3.85;;;;;;;8.25;52.48;101011.47;1599195;86;21211;-93
2023/12/28 08:19:44;;;;;;;8.60;3.90;;;;;;;8.61;51.84;101019.91;1612925;84;21397;-93
2023/12/28 08:22:51;;;;;;;10.18;3.58;;;;;;;8.57;51.94;101022.08;1643855;85;21883;-92
2023/12/28 08:25:58;;;;;;;10.58;3.77;;;;;;;8.48;52.12;101033.01;1632020;85;21399;-91
2023/12/28 08:29:05;;;;;;;8.85;3.90;;;;;;;8.63;52.01;101038.36;1642140;85;21261;-92
2023/12/28 08:32:13;;;;;;;11.63;3.95;;;;;;;8.93;51.50;101039.50;1654271;84;21262;-92
2023/12/28 08:35:19;;;;;;;13.90;4.42;;;;;;;9.14;50.83;101035.72;1622219;85;21376;-93
2023/12/28 08:38:28;;;;;;;9.88;4.95;;;;;;;9.10;50.38;101031.05;1643955;84;21364;-92
2023/12/28 08:41:36;;;;;;;10.95;4.15;;;;;;;9.30;50.06;101030.97;1649908;84;21340;-92
2023/12/28 08:44:42;;;;;;;8.13;3.92;;;;;;;9.20;50.12;101032.38;1655549;84;21661;-92
2023/12/28 08:47:50;;;;;;;10.95;4.40;;;;;;;9.13;50.08;101023.94;1631644;85;21261;-91
2023/12/28 08:50:57;;;;;;;8.08;4.12;;;;;;;9.15;50.19;101016.95;1633991;85;21416;-92
2023/12/28 08:54:03;;;;;;;6.00;3.50;;;;;;;9.43;49.69;101017.83;1621978;85;21392;-93
2023/12/28 08:57:10;;;;;;;9.83;3.77;;;;;;;9.23;50.13;101017.58;1654459;84;21340;-93
2023/12/28 09:00:18;;;;;;;11.43;4.47;;;;;;;9.08;50.45;101019.91;1638668;85;21321;-92
2023/12/28 09:03:24;;;;;;;7.30;3.40;;;;;;;9.25;50.28;101010.95;1655520;84;21944;-93
2023/12/28 09:06:31;;;;;;;13.10;4.33;;;;;;;9.24;50.45;101006.50;1653995;85;21958;-92
2023/12/28 09:09:38;;;;;;;11.35;4.28;;;;;;;9.21;50.64;101006.28;1645036;85;21372;-92
2023/12/28 09:12:45;;;;;;;7.35;4.12;;;;;;;9.13;50.79;101017.63;1634008;84;21321;-92
2023/12/28 09:15:51;;;;;;;10.15;4.58;;;;;;;9.23;50.49;101017.08;1600189;84;21402;-92
2023/12/28 09:19:01;;;;;;;11.53;4.12;;;;;;;9.14;50.52;101021.56;1609541;85;21699;-93
2023/12/28 09:22:08;;;;;;;10.00;4.37;;;;;;;9.26;50.47;101020.84;1641718;85;21368;-92
2023/12/28 09:25:16;;;;;;;8.30;3.83;;;;;;;9.40;50.30;101008.06;1652029;84;21365;-92
2023/12/28 09:28:23;;;;;;;23.18;6.90;;;;;;;9.31;50.55;101010.84;1650228;85;21943;-91
2023/12/28 09:31:38;;;;;;;8.33;4.15;;;;;;;9.14;50.78;100998.87;1631573;85;21360;-92
2023/12/28 09:34:51;;;;;;;10.05;4.87;;;;;;;9.23;50.78;101001.20;1639884;85;21271;-92
2023/12/28 09:37:57;;;;;;;10.13;4.75;;;;;;;9.21;50.61;101014.98;1642123;85;21225;-91
2023/12/28 09:41:04;;;;;;;11.00;4.00;;;;;;;9.25;50.48;101011.45;1641068;84;21351;-91
2023/12/28 09:44:21;;;;;;;10.23;4.42;;;;;;;9.30;50.71;101010.49;1647649;84;21300;-91
2023/12/28 09:47:29;;;;;;;9.95;4.00;;;;;;;9.48;50.30;101016.87;1641892;84;21288;-91
2023/12/28 09:50:35;;;;;;;11.65;4.42;;;;;;;9.45;50.38;101011.19;1643162;84;21359;-92
2023/12/28 09:53:41;;;;;;;13.35;5.00;;;;;;;9.62;50.09;101010.89;1618792;87;21418;-92
2023/12/28 09:56:48;;;;;;;10.63;4.12;;;;;;;9.43;50.40;100999.58;1619585;86;21996;-91
2023/12/28 09:59:54;;;;;;;9.30;4.22;;;;;;;9.36;50.45;100993.02;1634474;84;21292;-92
2023/12/28 10:03:06;;;;;;;11.40;4.40;;;;;;;9.48;50.10;100994.52;1648538;84;21368;-92
2023/12/28 10:06:15;;;;;;;7.47;4.08;;;;;;;9.67;49.70;100983.12;1632199;85;22528;-92
2023/12/28 10:09:22;;;;;;;12.55;5.08;;;;;;;9.73;49.42;100981.12;1642982;85;22038;-91
2023/12/28 10:12:28;;;;;;;10.58;4.33;;;;;;;9.80;49.22;100983.61;1645548;85;21690;-92
2023/12/28 10:15:35;;;;;;;10.75;4.12;;;;;;;9.85;49.03;100984.00;1644434;85;21199;-93
2023/12/28 10:18:46;;;;;;;11.53;4.00;;;;;;;9.89;48.87;100979.09;1632521;85;21834;-92
2023/12/28 10:21:51;;;;;;;8.20;4.25;;;;;;;9.79;48.92;100985.99;1664071;84;21407;-92
2023/12/28 10:24:57;;;;;;;11.70;4.28;;;;;;;10.18;48.44;100978.84;1649527;84;21270;-93
2023/12/28 10:28:03;;;;;;;16.05;4.67;;;;;;;9.97;48.95;100968.21;1624953;86;21390;-93
2023/12/28 10:31:11;;;;;;;10.80;3.80;;;;;;;10.01;48.79;100964.16;1637726;84;22455;-92
2023/12/28 10:34:17;;;;;;;9.85;4.10;;;;;;;10.11;48.63;100961.34;1640719;85;22854;-91
2023/12/28 10:37:27;;;;;;;17.90;4.10;;;;;;;10.21;48.39;100958.03;1652788;84;21376;-92
2023/12/28 10:40:38;;;;;;;9.40;3.80;;;;;;;10.52;47.51;100957.09;1651838;84;21368;-92
2023/12/28 10:44:15;;;;;;;13.13;3.62;;;;;;;10.28;47.88;100949.56;1654199;84;21289;-93
2023/12/28 10:47:20;;;;;;;10.65;3.65;;;;;;;10.37;47.46;100947.24;1650473;83;21262;-92
2023/12/28 10:50:24;;;;;;;7.03;3.72;;;;;;;10.39;47.45;100952.03;1647456;84;22034;-91
2023/12/28 10:53:51;;;;;;;6.70;3.05;;;;;;;10.49;47.30;100948.70;1644225;84;21289;-92
2023/12/28 10:57:02;;;;;;;10.80;3.47;;;;;;;10.66;46.86;100958.38;1644950;84;21352;-92
2023/12/28 11:00:22;;;;;;;5.10;2.72;;;;;;;10.83;46.54;100951.14;1611469;85;21375;-93
2023/12/28 11:03:31;;;;;;;8.35;3.58;;;;;;;10.92;46.26;100945.55;1646551;83;21344;-91
2023/12/28 11:06:38;;;;;;;14.00;3.33;;;;;;;10.88;45.51;100937.83;1626795;86;22278;-92
2023/12/28 11:09:46;;;;;;;12.82;3.42;;;;;;;10.90;45.06;100940.73;1588862;86;21426;-92
2023/12/28 11:12:53;;;;;;;9.68;3.42;;;;;;;10.97;44.78;100941.81;1644474;81;21298;-93
2023/12/28 11:16:00;;;;;;;8.93;3.50;;;;;;;11.14;44.37;100939.98;1613312;85;22268;-93
2023/12/28 11:19:06;;;;;;;26.77;4.05;;;;;;;11.32;44.21;100943.14;1624613;85;21409;-93
2023/12/28 11:22:13;;;;;;;20.30;4.20;;;;;;;11.25;44.37;100932.00;1640381;85;21211;-92
2023/12/28 11:25:24;;;;;;;10.95;3.15;;;;;;;11.40;43.53;100934.44;1656172;84;21588;-93
2023/12/28 11:28:31;;;;;;;41.77;4.37;;;;;;;11.35;43.55;100931.34;1653089;80;21385;-92
2023/12/28 11:31:41;;;;;;;53.98;5.03;;;;;;;11.42;43.33;100927.42;1654415;84;21989;-92
2023/12/28 11:34:48;;;;;;;20.40;2.87;;;;;;;11.17;43.78;100927.86;1637695;82;21357;-92
2023/12/28 11:37:58;;;;;;;20.37;3.35;;;;;;;10.89;44.01;100927.22;1632360;84;21371;-92
2023/12/28 11:41:03;;;;;;;9.68;2.85;;;;;;;11.15;43.36;100934.88;1636525;84;21376;-92
2023/12/28 11:44:11;;;;;;;8.70;2.90;;;;;;;11.25;42.78;100940.22;1630103;86;21389;-92
2023/12/28 11:47:21;;;;;;;19.07;3.27;;;;;;;10.91;42.92;100938.84;1638315;84;21671;-91
2023/12/28 11:50:28;;;;;;;8.98;3.08;;;;;;;10.90;43.08;100943.47;1638894;84;21281;-91
2023/12/28 11:53:35;;;;;;;9.03;3.00;;;;;;;10.84;43.24;100939.17;1642497;83;21370;-92
2023/12/28 11:56:41;;;;;;;7.95;2.70;;;;;;;10.64;43.70;100941.28;1658673;85;21463;-91
2023/12/28 11:59:47;;;;;;;9.78;3.05;;;;;;;10.92;43.23;100943.33;1641516;85;21832;-92
2023/12/28 12:02:55;;;;;;;10.88;2.62;;;;;;;10.81;43.63;100942.22;1652757;83;21383;-91
2023/12/28 12:06:03;;;;;;;10.32;2.42;;;;;;;10.92;43.42;100941.95;1621164;86;21974;-91
2023/12/28 12:09:09;;;;;;;20.65;3.70;;;;;;;10.92;43.32;100941.44;1642823;83;21331;-92
2023/12/28 12:12:16;;;;;;;13.48;2.75;;;;;;;10.80;43.54;100944.61;1612519;87;21972;-92
2023/12/28 12:15:23;;;;;;;19.73;2.55;;;;;;;10.71;43.68;100942.33;1607302;85;21482;-92
2023/12/28 12:18:29;;;;;;;14.78;2.90;;;;;;;10.68;43.96;100935.80;1642532;85;21276;-91
2023/12/28 12:21:36;;;;;;;10.82;3.00;;;;;;;10.78;43.97;100929.73;1660704;84;21684;-92
2023/12/28 12:24:43;;;;;;;10.55;3.72;;;;;;;10.71;44.24;100932.24;1630882;84;21577;-92
2023/12/28 12:27:52;;;;;;;39.92;7.75;;;;;;;10.55;44.96;100938.14;1630011;84;21939;-91
2023/12/28 12:31:06;;;;;;;25.85;3.90;;;;;;;10.58;45.03;100934.55;1632632;81;22330;-92
2023/12/28 12:34:12;;;;;;;18.35;3.80;;;;;;;10.44;45.30;100940.12;1649689;84;21342;-92
2023/12/28 12:37:19;;;;;;;12.85;3.67;;;;;;;10.67;45.09;100945.04;1638542;85;21388;-91
2023/12/28 12:40:26;;;;;;;9.83;3.20;;;;;;;10.90;44.79;100942.61;1645928;84;21388;-91
2023/12/28 12:43:33;;;;;;;12.00;3.83;;;;;;;10.65;45.34;100940.25;1632060;86;21372;-92
2023/12/28 12:46:40;;;;;;;7.62;3.02;;;;;;;10.71;45.41;100943.70;1641853;84;21364;-92
2023/12/28 12:49:46;;;;;;;10.72;3.70;;;;;;;10.78;45.41;100949.41;1649500;85;21385;-91
2023/12/28 12:52:57;;;;;;;8.23;3.77;;;;;;;10.89;45.29;100944.49;1648125;83;21306;-91
2023/12/28 12:56:04;;;;;;;9.08;4.05;;;;;;;10.79;45.45;100940.16;1664666;84;21347;-91
2023/12/28 12:59:15;;;;;;;10.93;3.75;;;;;;;10.88;45.38;100939.19;1657344;84;21351;-91
2023/12/28 13:02:20;;;;;;;10.20;3.40;;;;;;;10.73;45.81;100937.58;1614699;84;21353;-91
2023/12/28 13:05:27;;;;;;;12.18;4.72;;;;;;;10.75;45.81;100946.47;1640859;84;21406;-91
2023/12/28 13:08:36;;;;;;;9.83;4.70;;;;;;;10.54;46.27;100942.76;1640787;85;21360;-91
2023/12/28 13:11:43;;;;;;;15.13;5.42;;;;;;;10.39;46.62;100946.55;1656156;82;21348;-92
2023/12/28 13:14:49;;;;;;;23.60;6.30;;;;;;;10.49;46.46;100941.87;1652814;85;21365;-92
2023/12/28 13:17:57;;;;;;;11.20;5.90;;;;;;;10.35;46.62;100939.72;1642205;84;22180;-92
2023/12/28 13:21:04;;;;;;;13.30;5.87;;;;;;;10.41;46.48;100940.44;1639913;84;22029;-93
2023/12/28 13:24:10;;;;;;;9.15;5.00;;;;;;;10.29;46.70;100951.27;1645411;85;22362;-92
2023/12/28 13:27:17;;;;;;;14.23;5.25;;;;;;;10.27;46.80;100945.63;1630158;85;22547;-91
2023/12/28 13:30:28;;;;;;;17.92;5.08;;;;;;;10.25;46.80;100947.13;1635703;84;22501;-92
2023/12/28 13:33:33;;;;;;;15.08;6.08;;;;;;;10.14;46.97;100946.00;1638058;84;21379;-93
2023/12/28 13:36:45;;;;;;;10.48;5.78;;;;;;;10.03;47.10;100948.98;1651225;84;21241;-93
2023/12/28 13:39:54;;;;;;;11.63;5.28;;;;;;;10.13;46.79;100940.19;1627157;85;21328;-93
2023/12/28 13:43:01;;;;;;;11.88;5.10;;;;;;;10.21;46.52;100941.63;1635799;82;21994;-93
2023/12/28 13:46:08;;;;;;;11.35;5.20;;;;;;;10.20;46.49;100935.78;1647170;84;21288;-93
2023/12/28 13:49:14;;;;;;;14.00;5.05;;;;;;;9.90;47.03;100935.20;1637433;85;21256;-92
2023/12/28 13:52:21;;;;;;;10.75;5.85;;;;;;;9.68;47.32;100945.22;1596686;87;21374;-92
2023/12/28 13:55:28;;;;;;;13.40;6.72;;;;;;;9.76;47.23;100928.92;1657975;84;21966;-93
2023/12/28 13:58:34;;;;;;;14.33;6.22;;;;;;;9.67;47.38;100938.05;1639398;83;21302;-92
2023/12/28 14:01:39;;;;;;;12.37;5.65;;;;;;;9.75;47.10;100929.94;1644778;84;21393;-92
2023/12/28 14:04:46;;;;;;;11.63;6.30;;;;;;;9.52;47.62;100932.77;1642891;84;21401;-92
2023/12/28 14:07:54;;;;;;;13.10;5.85;;;;;;;9.66;47.43;100933.60;1652924;82;21367;-92
2023/12/28 14:11:00;;;;;;;18.52;6.95;;;;;;;9.70;47.27;100927.67;1645962;83;21260;-93
2023/12/28 14:14:06;;;;;;;18.52;6.87;;;;;;;9.82;47.02;100911.89;1673259;84;21324;-92
2023/12/28 14:17:12;;;;;;;20.62;8.63;;;;;;;9.67;47.17;100921.66;1633424;85;21353;-93
2023/12/28 14:20:19;;;;;;;35.20;11.85;;;;;;;9.30;48.00;100922.63;1644894;82;21356;-92
2023/12/28 14:23:27;;;;;;;27.62;9.48;;;;;;;8.80;49.15;100927.62;1662647;85;21375;-92
2023/12/28 14:26:33;;;;;;;16.95;9.13;;;;;;;8.83;49.00;100932.78;1650850;84;21389;-94
2023/12/28 14:29:41;;;;;;;23.47;10.68;;;;;;;8.92;48.87;100934.10;1650724;84;21413;-92
2023/12/28 14:32:48;;;;;;;20.80;9.60;;;;;;;8.72;49.05;100942.02;1653915;83;21380;-94
2023/12/28 14:35:56;;;;;;;17.57;9.53;;;;;;;8.44;49.49;100942.46;1643328;85;21396;-93